Time;durP1;ratioP1;P1;durP2;ratioP2;P2;SDS_P1;SDS_P2;PMS_P1;PMS_P2;Temp;Humidity;BMP_temperature;BMP_pressure;BME280_temperature;BME280_humidity;BME280_pressure;Samples;Min_cycle;Max_cycle;Signal;HPM_P1;HPM_P2
2021/12/23 00:00:16;;;;;;;0.50;0.10;;;0.30;1.00;;;;;;4973588;28;20443;-71
2021/12/23 00:02:44;;;;;;;7.40;6.93;;;0.30;1.00;;;;;;4973371;28;20968;-71
2021/12/23 00:05:13;;;;;;;3.60;3.43;;;0.20;1.00;;;;;;4973831;28;20545;-71
2021/12/23 00:07:42;;;;;;;0.50;0.10;;;0.20;1.00;;;;;;4975369;28;20477;-71
2021/12/23 00:10:10;;;;;;;0.50;0.10;;;0.30;1.00;;;;;;4975108;28;20478;-71
2021/12/23 00:12:40;;;;;;;0.50;0.10;;;0.20;1.00;;;;;;4965923;28;20450;-71
2021/12/23 00:15:17;;;;;;;0.50;0.10;;;0.20;1.00;;;;;;4955380;28;20454;-70
2021/12/23 00:18:01;;;;;;;0.50;0.10;;;0.20;1.00;;;;;;4955140;28;20472;-71
2021/12/23 00:26:04;;;;;;;0.50;0.10;;;0.20;1.00;;;;;;4974109;28;20915;-71
2021/12/23 00:28:33;;;;;;;0.50;0.10;;;0.20;1.00;;;;;;4974560;28;20473;-71
2021/12/23 00:31:02;;;;;;;0.50;0.10;;;0.20;1.00;;;;;;4974563;28;20482;-71
2021/12/23 00:33:31;;;;;;;0.50;0.10;;;0.20;1.00;;;;;;4975636;28;21023;-71
2021/12/23 00:35:59;;;;;;;0.50;0.10;;;0.20;1.00;;;;;;4974595;28;20839;-71
2021/12/23 00:38:31;;;;;;;0.50;0.10;;;0.20;1.00;;;;;;4968478;28;20465;-72
2021/12/23 00:41:01;;;;;;;0.50;0.10;;;0.20;1.00;;;;;;4953141;28;20538;-70
2021/12/23 00:43:29;;;;;;;0.50;0.10;;;0.20;1.00;;;;;;4953760;29;20447;-69
2021/12/23 00:46:01;;;;;;;0.50;0.10;;;0.20;1.00;;;;;;4952746;29;20466;-74
2021/12/23 00:48:29;;;;;;;0.50;0.10;;;0.20;1.00;;;;;;4954037;29;20454;-73
2021/12/23 00:50:57;;;;;;;0.50;0.10;;;0.20;1.00;;;;;;4954823;29;20487;-70
2021/12/23 00:53:26;;;;;;;0.50;0.10;;;0.20;1.00;;;;;;4956550;29;20454;-71
2021/12/23 00:55:56;;;;;;;0.50;0.10;;;0.10;1.00;;;;;;4943321;29;20456;-71
2021/12/23 00:58:24;;;;;;;0.50;0.10;;;0.10;1.00;;;;;;4939176;29;20450;-70
2021/12/23 01:00:52;;;;;;;0.87;0.53;;;0.10;1.00;;;;;;4939161;29;20448;-71
2021/12/23 01:03:20;;;;;;;0.50;0.10;;;;;;;;;;4939738;29;20452;-72
2021/12/23 01:05:48;;;;;;;0.50;0.10;;;0.10;1.00;;;;;;4940646;29;20858;-71
2021/12/23 01:08:19;;;;;;;0.50;0.10;;;0.10;1.00;;;;;;4942717;29;20550;-72
2021/12/23 01:10:49;;;;;;;0.50;0.10;;;0.20;1.00;;;;;;4943854;28;21014;-71
2021/12/23 01:13:19;;;;;;;0.50;0.10;;;0.20;1.00;;;;;;4979159;28;20443;-72
2021/12/23 01:15:59;;;;;;;0.50;0.10;;;0.20;1.00;;;;;;4978219;28;20494;-72
2021/12/23 01:18:31;;;;;;;0.50;0.10;;;0.20;1.00;;;;;;4980373;28;20473;-72
2021/12/23 01:21:15;;;;;;;0.50;0.20;;;0.20;1.00;;;;;;4981354;28;20449;-71
2021/12/23 01:23:47;;;;;;;0.50;0.10;;;0.20;1.00;;;;;;4978438;28;20525;-72
2021/12/23 01:26:18;;;;;;;0.50;0.10;;;0.20;1.00;;;;;;4977294;28;20482;-71
2021/12/23 01:28:49;;;;;;;0.50;0.10;;;0.20;1.00;;;;;;4979382;28;20446;-72
2021/12/23 01:31:17;;;;;;;0.50;0.10;;;0.30;1.00;;;;;;4979223;28;20480;-70
2021/12/23 01:33:46;;;;;;;0.50;0.10;;;0.20;1.00;;;;;;4977008;28;20460;-71
2021/12/23 01:36:15;;;;;;;0.50;0.10;;;0.20;1.00;;;;;;4976589;28;20470;-70
2021/12/23 01:38:43;;;;;;;0.50;0.10;;;0.20;1.00;;;;;;4975718;28;20450;-72
2021/12/23 01:41:11;;;;;;;0.50;0.10;;;0.20;1.00;;;;;;4961562;28;20452;-70
2021/12/23 01:43:39;;;;;;;0.50;0.10;;;0.30;1.00;;;;;;4937417;29;20448;-71
2021/12/23 01:46:08;;;;;;;0.50;0.10;;;0.30;1.00;;;;;;4936920;29;20508;-71
2021/12/23 01:48:36;;;;;;;0.50;0.10;;;0.30;1.00;;;;;;4964248;28;20494;-71
2021/12/23 01:51:04;;;;;;;0.50;0.10;;;0.40;1.00;;;;;;4975572;28;20485;-72
2021/12/23 01:53:32;;;;;;;0.50;0.10;;;0.40;1.00;;;;;;4975775;28;20458;-71
2021/12/23 01:56:00;;;;;;;0.50;0.10;;;0.40;1.00;;;;;;4976303;28;20466;-70
2021/12/23 01:58:28;;;;;;;0.50;0.10;;;0.40;1.00;;;;;;4977272;28;20456;-71
2021/12/23 02:00:56;;;;;;;0.50;0.10;;;0.30;1.00;;;;;;4977555;28;21000;-71
2021/12/23 02:03:26;;;;;;;0.50;0.10;;;0.40;1.00;;;;;;4977198;28;20460;-72
2021/12/23 02:05:54;;;;;;;0.50;0.10;;;0.30;1.00;;;;;;4976784;28;20462;-72
2021/12/23 02:08:31;;;;;;;3.77;3.57;;;0.30;1.00;;;;;;4976783;28;20453;-72
2021/12/23 02:11:00;;;;;;;1.30;1.20;;;0.30;1.00;;;;;;4976590;28;20454;-72
2021/12/23 02:13:28;;;;;;;0.50;0.10;;;0.40;1.00;;;;;;4976335;28;20518;-72
2021/12/23 02:15:56;;;;;;;0.50;0.10;;;0.30;1.00;;;;;;4976341;28;20474;-72
2021/12/23 02:18:26;;;;;;;0.50;0.10;;;0.30;1.00;;;;;;4978939;28;20457;-70
2021/12/23 02:20:56;;;;;;;0.50;0.10;;;0.20;1.00;;;;;;4979691;28;20442;-71
2021/12/23 02:23:25;;;;;;;0.50;0.10;;;0.20;1.00;;;;;;4980542;28;20518;-72
2021/12/23 02:25:53;;;;;;;0.50;0.10;;;0.30;1.00;;;;;;4978754;28;20541;-72
2021/12/23 02:28:22;;;;;;;0.50;0.10;;;0.20;1.00;;;;;;4977059;28;20454;-71
2021/12/23 02:30:52;;;;;;;0.50;0.10;;;0.20;1.00;;;;;;4976490;28;20549;-72
2021/12/23 02:33:22;;;;;;;0.50;0.10;;;0.30;1.00;;;;;;4976206;28;20933;-72
2021/12/23 02:35:51;;;;;;;0.50;0.10;;;0.20;1.00;;;;;;4974958;28;20808;-70
2021/12/23 02:38:20;;;;;;;0.80;0.47;;;0.30;1.00;;;;;;4974746;28;20470;-70
2021/12/23 02:40:48;;;;;;;0.50;0.10;;;;;;;;;;4974418;28;20535;-70
2021/12/23 02:43:18;;;;;;;0.50;0.10;;;0.20;1.00;;;;;;4974449;28;20888;-70
2021/12/23 02:45:49;;;;;;;0.50;0.10;;;0.20;1.00;;;;;;4974005;28;20453;-72
2021/12/23 02:48:19;;;;;;;0.50;0.10;;;0.30;1.00;;;;;;4974291;28;20492;-69
2021/12/23 02:50:50;;;;;;;1.03;0.93;;;0.30;1.00;;;;;;4973856;28;20857;-70
2021/12/23 02:53:19;;;;;;;0.50;0.10;;;0.30;1.00;;;;;;4974277;28;20489;-70
2021/12/23 02:55:47;;;;;;;0.50;0.10;;;0.20;1.00;;;;;;4973607;28;20446;-70
2021/12/23 02:58:15;;;;;;;0.50;0.10;;;0.20;1.00;;;;;;4973685;28;20472;-70
2021/12/23 03:00:48;;;;;;;0.50;0.20;;;0.10;1.00;;;;;;4973709;28;20545;-70
2021/12/23 03:03:16;;;;;;;0.50;0.10;;;0.10;1.00;;;;;;4973951;28;20968;-70
2021/12/23 03:05:47;;;;;;;0.50;0.20;;;0.10;1.00;;;;;;4972986;28;20450;-72
2021/12/23 03:08:15;;;;;;;0.50;0.10;;;0.10;1.00;;;;;;4973646;28;20942;-71
2021/12/23 03:10:45;;;;;;;0.50;0.10;;;0.10;1.00;;;;;;4974362;28;20460;-71
2021/12/23 03:13:12;;;;;;;1.27;1.13;;;0.10;1.00;;;;;;4973735;28;20492;-71
2021/12/23 03:15:42;;;;;;;5.80;1.93;;;0.10;1.00;;;;;;4973149;28;20454;-71
2021/12/23 03:18:09;;;;;;;0.50;0.10;;;0.10;1.00;;;;;;4973610;28;20470;-71
2021/12/23 03:20:38;;;;;;;12.93;12.37;;;;;;;;;;4973545;28;20962;-71
2021/12/23 03:23:05;;;;;;;0.50;0.10;;;0.00;1.00;;;;;;4974346;28;20453;-71
2021/12/23 03:25:33;;;;;;;0.50;0.10;;;0.00;1.00;;;;;;4973944;28;20450;-71
2021/12/23 03:28:03;;;;;;;0.50;0.10;;;0.00;1.00;;;;;;4972811;28;20454;-71
2021/12/23 03:30:31;;;;;;;0.50;0.10;;;0.00;1.00;;;;;;4973829;28;20551;-70
2021/12/23 03:32:59;;;;;;;0.50;0.10;;;0.00;1.00;;;;;;4973714;28;20481;-70
2021/12/23 03:35:27;;;;;;;0.50;0.10;;;0.00;1.00;;;;;;4973108;28;20462;-70
2021/12/23 03:37:55;;;;;;;19.10;17.70;;;0.10;1.00;;;;;;4973400;28;20472;-70
2021/12/23 03:40:24;;;;;;;0.50;0.10;;;0.10;1.00;;;;;;4949347;28;20459;-70
2021/12/23 03:42:52;;;;;;;0.50;0.10;;;0.10;1.00;;;;;;4965666;28;20467;-71
2021/12/23 03:45:22;;;;;;;0.50;0.10;;;0.10;1.00;;;;;;4970977;28;20461;-71
2021/12/23 03:47:51;;;;;;;0.50;0.10;;;0.20;1.00;;;;;;4955395;28;20550;-70
2021/12/23 03:50:22;;;;;;;0.50;0.10;;;0.20;1.00;;;;;;4954200;28;20447;-70
2021/12/23 03:52:50;;;;;;;0.50;0.10;;;0.20;1.00;;;;;;4954384;29;20497;-70
2021/12/23 03:55:19;;;;;;;0.50;0.10;;;0.20;1.00;;;;;;4953782;29;20466;-70
2021/12/23 03:57:47;;;;;;;0.50;0.20;;;0.30;1.00;;;;;;4956327;29;20463;-70
2021/12/23 04:00:17;;;;;;;0.50;0.10;;;0.20;1.00;;;;;;4959049;29;20443;-71
2021/12/23 04:02:47;;;;;;;0.50;0.10;;;0.30;1.00;;;;;;4958045;29;20443;-72
2021/12/23 04:05:16;;;;;;;0.50;0.10;;;0.30;1.00;;;;;;4958806;28;20557;-71
2021/12/23 04:07:45;;;;;;;0.50;0.10;;;0.20;1.00;;;;;;4955305;29;20459;-71
2021/12/23 04:10:17;;;;;;;0.50;0.10;;;0.20;1.00;;;;;;4954768;29;20446;-71
2021/12/23 04:12:46;;;;;;;0.50;0.10;;;0.20;1.00;;;;;;4953984;29;20485;-71
2021/12/23 04:15:14;;;;;;;2.20;2.10;;;0.20;1.00;;;;;;4954092;28;20941;-71
2021/12/23 04:17:43;;;;;;;0.50;0.10;;;0.20;1.00;;;;;;4954233;29;20474;-70
2021/12/23 04:20:19;;;;;;;0.50;0.10;;;;;;;;;;4956267;28;20453;-70
2021/12/23 04:22:49;;;;;;;0.50;0.10;;;0.20;1.00;;;;;;4947283;29;20433;-72
2021/12/23 04:25:21;;;;;;;0.50;0.10;;;0.20;1.00;;;;;;4958059;29;20458;-70
2021/12/23 04:27:51;;;;;;;0.50;0.10;;;0.20;1.00;;;;;;4956415;29;20460;-70
2021/12/23 04:30:20;;;;;;;0.50;0.10;;;0.20;1.00;;;;;;4954208;29;20447;-71
2021/12/23 04:32:48;;;;;;;0.50;0.10;;;0.20;1.00;;;;;;4954171;29;20491;-72
2021/12/23 04:35:18;;;;;;;0.50;0.10;;;0.20;1.00;;;;;;4953496;29;20474;-70
2021/12/23 04:37:45;;;;;;;0.50;0.10;;;0.20;1.00;;;;;;4953778;29;20493;-71
2021/12/23 04:40:15;;;;;;;0.50;0.10;;;0.20;1.00;;;;;;4956605;29;20442;-70
2021/12/23 04:42:43;;;;;;;0.50;0.10;;;0.20;1.00;;;;;;4958045;29;20453;-70
2021/12/23 04:45:11;;;;;;;0.50;0.10;;;0.20;1.00;;;;;;4957603;28;20458;-71
2021/12/23 04:47:40;;;;;;;0.50;0.10;;;0.20;1.00;;;;;;4957761;28;20485;-71
2021/12/23 04:50:10;;;;;;;0.50;0.10;;;0.20;1.00;;;;;;4958082;28;20457;-71
2021/12/23 04:52:40;;;;;;;0.50;0.10;;;0.20;1.00;;;;;;4958356;28;20851;-71
2021/12/23 04:55:09;;;;;;;0.50;0.10;;;0.20;1.00;;;;;;4957566;28;20454;-71
2021/12/23 04:57:37;;;;;;;0.50;0.10;;;0.10;1.00;;;;;;4957052;29;20482;-71
2021/12/23 05:00:08;;;;;;;2.83;2.73;;;0.20;1.00;;;;;;4957171;29;20994;-71
2021/12/23 05:02:36;;;;;;;0.50;0.10;;;0.20;1.00;;;;;;4957185;28;20436;-71
2021/12/23 05:05:05;;;;;;;6.60;6.27;;;0.20;1.00;;;;;;4956809;28;20451;-71
2021/12/23 05:07:33;;;;;;;0.50;0.10;;;0.20;1.00;;;;;;4957006;28;20463;-72
2021/12/23 05:10:04;;;;;;;0.50;0.10;;;0.20;1.00;;;;;;4956994;29;20480;-70
2021/12/23 05:12:31;;;;;;;0.50;0.10;;;0.20;1.00;;;;;;4956989;28;20450;-70
2021/12/23 05:14:59;;;;;;;0.50;0.10;;;0.20;1.00;;;;;;4956781;28;20457;-70
2021/12/23 05:17:28;;;;;;;0.50;0.10;;;;;;;;;;4957383;28;20522;-70
2021/12/23 05:19:55;;;;;;;0.50;0.10;;;0.20;1.00;;;;;;4958107;28;20450;-70
2021/12/23 05:22:23;;;;;;;0.50;0.10;;;0.30;1.00;;;;;;4957380;29;20443;-71
2021/12/23 05:24:52;;;;;;;0.50;0.10;;;0.20;1.00;;;;;;4956626;28;20447;-69
2021/12/23 05:30:03;;;;;;;0.50;0.10;;;0.30;1.00;;;;;;4956463;28;20454;-70
2021/12/23 05:32:31;;;;;;;0.50;0.10;;;0.30;1.00;;;;;;4953527;28;20462;-70
2021/12/23 05:34:59;;;;;;;0.50;0.10;;;0.30;1.00;;;;;;4956431;29;20473;-70
2021/12/23 05:37:27;;;;;;;0.50;0.10;;;0.40;1.00;;;;;;4956361;29;20466;-71
2021/12/23 05:39:55;;;;;;;0.67;0.63;;;0.40;1.00;;;;;;4954749;28;20451;-71
2021/12/23 05:42:26;;;;;;;0.50;0.10;;;0.40;1.00;;;;;;4957846;28;20471;-71
2021/12/23 05:44:54;;;;;;;0.50;0.10;;;0.50;1.00;;;;;;4954878;28;20455;-71
2021/12/23 05:47:22;;;;;;;0.50;0.10;;;0.50;1.00;;;;;;4956626;29;20471;-71
2021/12/23 05:49:50;;;;;;;0.50;0.10;;;0.50;1.00;;;;;;4956326;28;20466;-71
2021/12/23 05:52:18;;;;;;;0.50;0.10;;;0.40;1.00;;;;;;4956142;28;20821;-71
2021/12/23 05:54:46;;;;;;;0.50;0.10;;;0.40;1.00;;;;;;4955825;29;20479;-71
2021/12/23 05:57:14;;;;;;;0.50;0.10;;;0.40;1.00;;;;;;4955735;28;20475;-71
2021/12/23 05:59:43;;;;;;;0.50;0.10;;;0.40;1.00;;;;;;4956304;29;20449;-71
2021/12/23 06:02:11;;;;;;;1.43;1.33;;;0.50;1.00;;;;;;4955860;28;20547;-71
2021/12/23 06:04:39;;;;;;;0.50;0.10;;;0.50;1.00;;;;;;4955709;28;20478;-71
2021/12/23 06:07:08;;;;;;;1.17;0.60;;;0.50;1.00;;;;;;4957371;29;20555;-71
2021/12/23 06:09:36;;;;;;;0.50;0.10;;;0.50;1.00;;;;;;4963261;28;20447;-71
2021/12/23 06:12:05;;;;;;;0.50;0.10;;;0.50;1.00;;;;;;4960354;28;20456;-72
2021/12/23 06:14:32;;;;;;;0.50;0.10;;;0.50;1.00;;;;;;4956710;28;20488;-71
2021/12/23 06:17:02;;;;;;;0.50;0.10;;;0.40;1.00;;;;;;4958788;28;21005;-70
2021/12/23 06:19:30;;;;;;;0.50;0.10;;;0.40;1.00;;;;;;4960686;29;20566;-71
2021/12/23 06:21:58;;;;;;;0.50;0.10;;;;;;;;;;4958776;28;20447;-71
2021/12/23 06:24:26;;;;;;;0.50;0.20;;;0.40;1.00;;;;;;4958207;29;20990;-71
2021/12/23 06:26:54;;;;;;;0.50;0.10;;;0.40;1.00;;;;;;4958283;28;20510;-71
2021/12/23 06:29:22;;;;;;;0.50;0.10;;;0.40;1.00;;;;;;4956210;28;20457;-71
2021/12/23 06:31:50;;;;;;;1.60;1.50;;;0.40;1.00;;;;;;4950877;29;20468;-71
2021/12/23 06:34:19;;;;;;;0.50;0.10;;;0.40;1.00;;;;;;4950158;28;20555;-71
2021/12/23 06:36:47;;;;;;;0.50;0.10;;;0.50;1.00;;;;;;4954752;28;20916;-71
2021/12/23 06:39:15;;;;;;;0.60;0.10;;;0.50;1.00;;;;;;4936251;29;20447;-71
2021/12/23 06:41:43;;;;;;;0.50;0.10;;;0.60;1.00;;;;;;4936040;29;20447;-71
2021/12/23 06:44:11;;;;;;;0.50;0.10;;;0.60;1.00;;;;;;4936652;29;20452;-71
2021/12/23 06:46:39;;;;;;;0.50;0.10;;;0.60;1.00;;;;;;4947005;28;20571;-69
2021/12/23 06:49:07;;;;;;;0.50;0.10;;;0.60;1.00;;;;;;4950819;28;21016;-71
2021/12/23 06:51:37;;;;;;;0.50;0.20;;;0.70;1.00;;;;;;4955120;29;20451;-70
2021/12/23 06:54:06;;;;;;;0.50;0.10;;;;;;;;;;4954899;28;20855;-70
2021/12/23 06:56:34;;;;;;;0.50;0.10;;;0.60;1.00;;;;;;4954861;28;20471;-71
2021/12/23 06:59:02;;;;;;;1.80;1.70;;;0.60;1.00;;;;;;4955440;29;20473;-70
2021/12/23 07:01:29;;;;;;;0.50;0.10;;;0.70;1.00;;;;;;4952437;28;20938;-70
2021/12/23 07:04:06;;;;;;;9.20;2.93;;;0.60;1.00;;;;;;4954973;29;20432;-71
2021/12/23 07:06:37;;;;;;;0.50;0.10;;;0.60;1.00;;;;;;4955658;29;20495;-71
2021/12/23 07:09:06;;;;;;;0.50;0.27;;;0.60;1.00;;;;;;4954870;29;20435;-71
2021/12/23 07:11:35;;;;;;;2.73;1.37;;;0.60;1.00;;;;;;4954540;29;20537;-71
2021/12/23 07:14:03;;;;;;;0.50;0.10;;;0.60;1.00;;;;;;4950295;29;20484;-70
2021/12/23 07:16:32;;;;;;;0.50;0.30;;;-0.10;1.00;;;;;;4948880;28;20490;-70
2021/12/23 07:18:59;;;;;;;0.50;0.10;;;0.70;1.00;;;;;;4954802;29;20509;-71
2021/12/23 07:21:27;;;;;;;16.47;5.00;;;0.70;1.00;;;;;;4954684;29;20451;-71
2021/12/23 07:23:57;;;;;;;0.80;0.50;;;0.70;1.00;;;;;;4954552;29;20966;-70
2021/12/23 07:26:25;;;;;;;0.50;0.10;;;0.50;1.00;;;;;;4950548;29;20849;-71
2021/12/23 07:28:53;;;;;;;0.60;0.50;;;;;;;;;;4954384;28;20451;-71
2021/12/23 07:31:20;;;;;;;2.33;2.23;;;0.60;1.00;;;;;;4954254;29;20454;-70
2021/12/23 07:33:49;;;;;;;0.50;0.10;;;0.50;1.00;;;;;;4954975;29;20451;-71
2021/12/23 07:36:18;;;;;;;0.97;0.97;;;0.40;1.00;;;;;;4947686;29;20846;-72
2021/12/23 07:38:46;;;;;;;0.50;0.30;;;0.30;1.00;;;;;;4946918;28;20460;-71
2021/12/23 07:41:16;;;;;;;3.70;2.00;;;0.30;1.00;;;;;;4949845;28;20486;-71
2021/12/23 07:43:56;;;;;;;1.50;1.40;;;0.30;1.00;;;;;;4954002;29;20817;-71
2021/12/23 07:46:24;;;;;;;0.50;0.10;;;0.30;1.00;;;;;;4944943;29;20862;-71
2021/12/23 07:48:52;;;;;;;0.50;0.30;;;0.30;1.00;;;;;;4953991;28;20545;-71
2021/12/23 07:51:21;;;;;;;0.87;0.87;;;0.30;1.00;;;;;;4954265;29;20478;-71
2021/12/23 07:53:49;;;;;;;7.60;6.97;;;0.30;1.00;;;;;;4952078;28;20467;-71
2021/12/23 07:56:18;;;;;;;0.60;0.50;;;0.40;1.00;;;;;;4951676;28;20562;-71
2021/12/23 07:58:46;;;;;;;0.70;0.60;;;0.40;1.00;;;;;;4954952;29;20446;-70
2021/12/23 08:01:14;;;;;;;0.50;0.10;;;0.40;1.00;;;;;;4954396;29;20458;-71
2021/12/23 08:03:42;;;;;;;0.60;0.30;;;0.50;1.00;;;;;;4953866;29;20965;-71
2021/12/23 08:06:10;;;;;;;2.73;2.63;;;0.60;1.00;;;;;;4953876;29;20474;-71
2021/12/23 08:08:39;;;;;;;0.50;0.10;;;0.70;1.00;;;;;;4953953;28;20451;-71
2021/12/23 08:11:07;;;;;;;0.50;0.20;;;0.70;1.00;;;;;;4954482;29;20447;-71
2021/12/23 08:13:37;;;;;;;0.73;0.70;;;0.70;1.00;;;;;;4950304;28;20542;-71
2021/12/23 08:16:09;;;;;;;0.50;0.10;;;0.70;1.00;;;;;;4957021;28;20495;-70
2021/12/23 08:18:37;;;;;;;3.33;1.40;;;0.60;1.00;;;;;;4952525;29;20462;-70
2021/12/23 08:21:05;;;;;;;14.70;5.30;;;;;;;;;;4957303;29;20448;-70
2021/12/23 08:23:33;;;;;;;1.90;1.80;;;0.50;1.00;;;;;;4958039;28;20454;-71
2021/12/23 08:26:04;;;;;;;3.57;3.20;;;0.30;1.00;;;;;;4957529;28;20474;-71
2021/12/23 08:28:32;;;;;;;0.50;0.20;;;0.20;1.00;;;;;;4957591;28;21017;-72
2021/12/23 08:31:01;;;;;;;6.10;4.17;;;0.20;1.00;;;;;;4957486;28;20852;-70
2021/12/23 08:33:29;;;;;;;3.60;3.40;;;0.10;1.00;;;;;;4959642;28;20873;-70
2021/12/23 08:35:57;;;;;;;0.50;0.10;;;0.00;1.00;;;;;;4962794;28;20490;-70
2021/12/23 08:38:25;;;;;;;0.50;0.10;;;0.00;1.00;;;;;;4959728;28;20446;-66
2021/12/23 08:40:53;;;;;;;0.83;0.83;;;-1.30;1.00;;;;;;4953635;28;20456;-73
2021/12/23 08:43:21;;;;;;;0.93;0.80;;;0.40;1.00;;;;;;4959031;29;20443;-72
2021/12/23 08:45:49;;;;;;;1.50;1.40;;;0.50;1.00;;;;;;4952418;29;20464;-69
2021/12/23 08:48:18;;;;;;;0.60;0.20;;;0.50;1.00;;;;;;4951287;28;20522;-68
2021/12/23 08:50:46;;;;;;;1.57;1.47;;;0.40;1.00;;;;;;4958296;29;20946;-70
2021/12/23 08:53:14;;;;;;;24.73;2.00;;;0.30;1.00;;;;;;4958517;28;20442;-70
2021/12/23 08:55:42;;;;;;;0.70;0.57;;;0.40;1.00;;;;;;4953613;28;20487;-71
2021/12/23 08:58:10;;;;;;;0.60;0.43;;;0.40;1.00;;;;;;4957011;28;20843;-70
2021/12/23 09:00:40;;;;;;;2.03;1.80;;;0.40;1.00;;;;;;4949175;28;20996;-70
2021/12/23 09:03:10;;;;;;;1.30;0.97;;;0.40;1.00;;;;;;4956977;28;20439;-70
2021/12/23 09:05:42;;;;;;;0.97;0.97;;;0.30;1.00;;;;;;4955002;28;20443;-68
2021/12/23 09:08:10;;;;;;;0.50;0.10;;;0.20;1.00;;;;;;4956800;28;20459;-69
2021/12/23 09:10:39;;;;;;;0.50;0.10;;;0.30;1.00;;;;;;4952561;29;20515;-70
2021/12/23 09:13:07;;;;;;;1.53;1.43;;;0.30;1.00;;;;;;4951472;28;20459;-69
2021/12/23 09:15:41;;;;;;;4.67;2.93;;;0.30;1.00;;;;;;4957245;28;20486;-70
2021/12/23 09:18:10;;;;;;;0.50;0.20;;;;;;;;;;4940045;29;20974;-67
2021/12/23 09:20:40;;;;;;;0.50;0.10;;;0.20;1.00;;;;;;4953647;28;20447;-69
2021/12/23 09:23:09;;;;;;;3.70;2.80;;;0.20;1.00;;;;;;4953082;28;20478;-72
2021/12/23 09:25:42;;;;;;;6.63;1.60;;;;;;;;;;4957057;28;20434;-69
2021/12/23 09:28:26;;;;;;;4.53;3.93;;;;;;;;;;4958662;28;20449;-68
2021/12/23 09:33:45;;;;;;;7.17;6.27;;;;;;;;;;4957149;28;20507;-67
2021/12/23 09:36:16;;;;;;;6.17;3.30;;;;;;;;;;4957142;28;20570;-69
2021/12/23 09:38:47;;;;;;;1.57;1.13;;;;;;;;;;4957195;28;20507;-69
2021/12/23 09:41:18;;;;;;;3.03;2.50;;;-0.20;1.00;;;;;;4956882;29;20823;-67
2021/12/23 09:43:47;;;;;;;10.20;6.47;;;-0.20;1.00;;;;;;4956611;28;20443;-66
2021/12/23 09:46:17;;;;;;;4.70;3.90;;;-0.20;1.00;;;;;;4956155;29;20543;-67
2021/12/23 09:48:48;;;;;;;15.47;7.67;;;-0.20;1.00;;;;;;4955962;28;20527;-67
2021/12/23 09:51:19;;;;;;;13.87;5.70;;;-0.20;1.00;;;;;;4956435;28;20450;-69
2021/12/23 09:53:55;;;;;;;0.60;0.10;;;-0.20;1.00;;;;;;4955911;28;20454;-68
2021/12/23 09:56:23;;;;;;;0.70;0.50;;;-0.10;1.00;;;;;;4956181;28;21084;-66
2021/12/23 09:58:51;;;;;;;0.50;0.20;;;0.00;1.00;;;;;;4955511;29;20459;-68
2021/12/23 10:01:19;;;;;;;0.60;0.40;;;0.00;1.00;;;;;;4953929;28;20459;-66
2021/12/23 10:03:47;;;;;;;1.07;0.30;;;0.10;1.00;;;;;;4947792;28;20495;-68
2021/12/23 10:06:19;;;;;;;0.50;0.10;;;0.10;1.00;;;;;;4953047;29;20981;-68
2021/12/23 10:08:47;;;;;;;0.70;0.47;;;0.10;1.00;;;;;;4947570;29;20906;-69
2021/12/23 10:11:23;;;;;;;1.70;1.60;;;0.10;1.00;;;;;;4954861;28;20447;-68
2021/12/23 10:31:29;;;;;;;0.90;0.83;;;;;;;;;;4951772;29;20443;-68
2021/12/23 10:37:14;;;;;;;0.50;0.10;;;0.70;1.00;;;;;;4952773;28;20491;-68
2021/12/23 10:39:45;;;;;;;1.10;0.97;;;0.70;1.00;;;;;;4957813;28;20445;-68
2021/12/23 10:42:16;;;;;;;6.13;2.73;;;0.80;1.00;;;;;;4957705;29;20467;-69
2021/12/23 10:44:49;;;;;;;0.50;0.10;;;0.70;1.00;;;;;;4956164;28;20443;-68
2021/12/23 10:47:38;;;;;;;2.73;2.63;;;0.70;1.00;;;;;;4959388;28;20462;-69
2021/12/23 10:50:19;;;;;;;0.50;0.10;;;0.60;1.00;;;;;;4941451;29;20588;-68
2021/12/23 10:52:52;;;;;;;4.97;1.40;;;0.60;1.00;;;;;;4954171;29;20477;-69
2021/12/23 10:58:15;;;;;;;0.53;0.27;;;0.40;1.00;;;;;;4952572;28;20450;-69
2021/12/23 11:00:46;;;;;;;4.67;4.23;;;0.50;1.00;;;;;;4950680;28;20462;-68
2021/12/23 11:03:19;;;;;;;8.20;4.63;;;0.70;1.00;;;;;;4954485;28;20439;-68
2021/12/23 11:06:02;;;;;;;0.60;0.40;;;0.70;1.00;;;;;;4955347;29;20446;-68
2021/12/23 11:08:39;;;;;;;0.60;0.40;;;0.70;1.00;;;;;;4955089;29;20449;-69
2021/12/23 11:11:39;;;;;;;1.17;1.17;;;0.90;1.00;;;;;;4955220;29;20443;-68
2021/12/23 11:39:34;;;;;;;2.83;2.43;;;1.20;1.00;;;;;;4936340;29;20479;-66
2021/12/23 11:42:10;;;;;;;13.57;3.50;;;1.20;1.00;;;;;;4954331;28;20439;-68
2021/12/23 11:44:39;;;;;;;0.50;0.20;;;1.20;1.00;;;;;;4953899;28;20790;-68
2021/12/23 11:47:11;;;;;;;0.70;0.70;;;1.30;1.00;;;;;;4961434;28;20992;-68
2021/12/23 11:49:42;;;;;;;3.50;3.30;;;1.30;1.00;;;;;;4957206;28;20844;-68
2021/12/23 11:52:11;;;;;;;0.93;0.93;;;1.30;1.00;;;;;;4956381;29;20431;-68
2021/12/23 11:54:41;;;;;;;5.33;5.13;;;1.30;1.00;;;;;;4954592;28;20444;-68
2021/12/23 11:57:14;;;;;;;0.60;0.40;;;1.30;1.00;;;;;;4948437;28;20861;-68
2021/12/23 11:59:46;;;;;;;0.50;0.10;;;1.20;1.00;;;;;;4950401;29;20474;-69
2021/12/23 12:02:16;;;;;;;0.50;0.10;;;1.30;1.00;;;;;;4953588;28;20447;-69
2021/12/23 12:04:45;;;;;;;0.50;0.10;;;1.30;1.00;;;;;;4948606;28;20452;-68
2021/12/23 12:07:15;;;;;;;3.90;2.10;;;1.20;1.00;;;;;;4945327;29;20470;-68
2021/12/23 12:09:59;;;;;;;6.57;4.27;;;1.20;1.00;;;;;;4953795;28;20440;-68
2021/12/23 12:12:27;;;;;;;0.50;0.20;;;1.10;1.00;;;;;;4951053;29;20485;-68
2021/12/23 12:14:58;;;;;;;1.07;0.97;;;1.10;1.00;;;;;;4943599;28;20973;-68
2021/12/23 12:17:42;;;;;;;2.40;0.87;;;1.00;1.00;;;;;;4944403;29;20864;-70
2021/12/23 12:20:20;;;;;;;2.63;2.53;;;1.00;1.00;;;;;;4949649;28;20546;-68
2021/12/23 12:23:00;;;;;;;0.97;0.87;;;0.90;1.00;;;;;;4949996;29;20482;-68
2021/12/23 12:25:57;;;;;;;0.50;0.30;;;0.90;1.00;;;;;;4952578;29;21042;-68
2021/12/23 12:28:29;;;;;;;4.60;3.67;;;1.10;1.00;;;;;;4954371;28;20455;-69
2021/12/23 12:31:01;;;;;;;0.50;0.10;;;1.10;1.00;;;;;;4939355;29;20443;-68
2021/12/23 12:33:39;;;;;;;0.60;0.50;;;1.20;1.00;;;;;;4956053;28;20474;-69
2021/12/23 12:36:09;;;;;;;0.60;0.40;;;1.30;1.00;;;;;;4940257;28;20886;-70
2021/12/23 12:38:39;;;;;;;0.70;0.67;;;1.30;1.00;;;;;;4949552;28;20470;-68
2021/12/23 12:41:11;;;;;;;0.50;0.10;;;1.40;1.00;;;;;;4953453;28;20443;-68
2021/12/23 12:44:13;;;;;;;0.50;0.10;;;0.70;1.00;;;;;;4949945;28;20462;-67
2021/12/23 12:47:03;;;;;;;0.70;0.47;;;1.50;1.00;;;;;;4939278;29;21077;-69
2021/12/23 12:49:36;;;;;;;1.03;1.03;;;1.50;1.00;;;;;;4935027;29;20513;-67
2021/12/23 12:52:11;;;;;;;3.20;3.00;;;1.60;1.00;;;;;;4952638;29;20938;-68
2021/12/23 12:54:46;;;;;;;2.73;2.53;;;1.60;1.00;;;;;;4953837;29;20793;-68
2021/12/23 12:57:15;;;;;;;0.60;0.43;;;1.60;1.00;;;;;;4949149;29;20865;-68
2021/12/23 12:59:45;;;;;;;0.50;0.20;;;1.70;1.00;;;;;;4949559;28;20453;-67
2021/12/23 13:02:35;;;;;;;0.50;0.20;;;1.60;1.00;;;;;;4949776;29;20450;-68
2021/12/23 13:05:09;;;;;;;0.50;0.10;;;1.70;1.00;;;;;;4954682;28;20452;-68
2021/12/23 13:07:38;;;;;;;3.83;2.53;;;1.80;1.00;;;;;;4956710;28;20459;-66
2021/12/23 13:10:13;;;;;;;4.57;2.73;;;1.80;1.00;;;;;;4954529;29;20446;-69
2021/12/23 13:12:48;;;;;;;1.60;1.50;;;1.80;1.00;;;;;;4944559;29;20481;-67
2021/12/23 13:15:20;;;;;;;0.50;0.10;;;1.80;1.00;;;;;;4956108;29;20446;-69
2021/12/23 13:17:54;;;;;;;1.47;1.37;;;1.90;1.00;;;;;;4956308;28;20483;-68
2021/12/23 13:20:40;;;;;;;0.50;0.20;;;1.90;1.00;;;;;;4946110;29;20838;-68
2021/12/23 13:23:13;;;;;;;0.60;0.50;;;1.90;1.00;;;;;;4956585;29;20441;-67
2021/12/23 13:25:54;;;;;;;5.07;4.77;;;1.90;1.00;;;;;;4959368;28;20450;-68
2021/12/23 13:28:25;;;;;;;0.60;0.40;;;1.90;1.00;;;;;;4964407;28;20472;-69
2021/12/23 13:30:54;;;;;;;0.93;0.77;;;2.00;1.00;;;;;;4958682;28;20535;-67
2021/12/23 13:33:24;;;;;;;4.20;3.40;;;1.80;1.00;;;;;;4956897;28;20453;-66
2021/12/23 13:35:52;;;;;;;5.83;5.33;;;1.90;1.00;;;;;;4956794;28;20479;-67
2021/12/23 13:38:38;;;;;;;0.83;0.40;;;1.90;1.00;;;;;;4956830;28;20509;-65
2021/12/23 13:41:24;;;;;;;4.20;1.07;;;1.80;1.00;;;;;;4956521;28;20466;-66
2021/12/23 13:43:53;;;;;;;0.50;0.10;;;1.80;1.00;;;;;;4956403;29;20903;-67
2021/12/23 13:46:21;;;;;;;0.60;0.20;;;1.80;1.00;;;;;;4956432;29;20483;-69
2021/12/23 13:48:54;;;;;;;6.30;2.73;;;1.80;1.00;;;;;;4956573;29;20450;-68
2021/12/23 13:51:24;;;;;;;0.60;0.37;;;1.90;1.00;;;;;;4949586;28;20459;-70
2021/12/23 13:54:05;;;;;;;1.63;1.07;;;2.00;1.00;;;;;;4953334;28;20451;-68
2021/12/23 13:56:36;;;;;;;0.50;0.10;;;2.00;1.00;;;;;;4956172;29;20604;-68
2021/12/23 13:59:09;;;;;;;0.53;0.20;;;2.00;1.00;;;;;;4948184;29;20506;-68
2021/12/23 14:02:02;;;;;;;0.50;0.10;;;2.00;1.00;;;;;;4951806;29;20465;-69
2021/12/23 14:04:43;;;;;;;1.50;1.40;;;2.10;1.00;;;;;;4956063;29;20479;-69
2021/12/23 14:07:16;;;;;;;0.63;0.47;;;2.20;1.00;;;;;;4956810;29;20486;-69
2021/12/23 14:09:46;;;;;;;0.63;0.47;;;2.20;1.00;;;;;;4956592;29;20458;-68
2021/12/23 14:12:19;;;;;;;0.50;0.10;;;2.20;1.00;;;;;;4956162;28;20938;-69
2021/12/23 14:14:57;;;;;;;0.50;0.10;;;2.30;1.00;;;;;;4954898;29;20963;-67
2021/12/23 14:17:31;;;;;;;0.50;0.10;;;3.00;1.00;;;;;;4947001;28;20490;-69
2021/12/23 14:23:15;;;;;;;0.50;0.30;;;2.30;1.00;;;;;;4955795;28;20450;-67
2021/12/23 14:25:49;;;;;;;1.70;1.60;;;2.30;1.00;;;;;;4955730;28;20527;-70
2021/12/23 14:28:21;;;;;;;10.03;2.90;;;2.30;1.00;;;;;;4944065;29;20547;-71
2021/12/23 14:30:52;;;;;;;0.50;0.10;;;2.30;1.00;;;;;;4955035;29;20443;-71